sensor_id;sensor_type;location;lat;lon;timestamp;pressure;altitude;pressure_sealevel;temperature;humidity
63556;BME280;49700;48.072;7.800;2023-01-25T00:01:50;101059.97;;;4.26;73.52
63556;BME280;49700;48.072;7.800;2023-01-25T00:04:18;101054.78;;;4.27;73.52
63556;BME280;49700;48.072;7.800;2023-01-25T00:06:50;101053.03;;;4.28;73.40
63556;BME280;49700;48.072;7.800;2023-01-25T00:09:17;101047.78;;;4.31;73.54
63556;BME280;49700;48.072;7.800;2023-01-25T00:11:43;101054.72;;;4.30;73.32
63556;BME280;49700;48.072;7.800;2023-01-25T00:14:09;101052.13;;;4.30;73.39
63556;BME280;49700;48.072;7.800;2023-01-25T00:19:28;101041.69;;;4.32;73.39
63556;BME280;49700;48.072;7.800;2023-01-25T00:21:53;101038.22;;;4.31;73.48
63556;BME280;49700;48.072;7.800;2023-01-25T00:24:19;101044.31;;;4.30;73.34
63556;BME280;49700;48.072;7.800;2023-01-25T00:26:47;101046.06;;;4.30;73.33
63556;BME280;49700;48.072;7.800;2023-01-25T00:29:12;101045.22;;;4.28;73.29
63556;BME280;49700;48.072;7.800;2023-01-25T00:32:02;101047.81;;;4.28;73.28
63556;BME280;49700;48.072;7.800;2023-01-25T00:34:46;101040.91;;;4.27;73.31
63556;BME280;49700;48.072;7.800;2023-01-25T00:39:41;101040.13;;;4.21;73.78
63556;BME280;49700;48.072;7.800;2023-01-25T00:42:09;101035.81;;;4.17;73.80
63556;BME280;49700;48.072;7.800;2023-01-25T00:44:35;101025.47;;;4.14;73.89
63556;BME280;49700;48.072;7.800;2023-01-25T00:47:00;101031.56;;;4.12;73.94
63556;BME280;49700;48.072;7.800;2023-01-25T00:49:26;101025.53;;;4.10;74.02
63556;BME280;49700;48.072;7.800;2023-01-25T00:51:53;101031.63;;;4.09;73.92
63556;BME280;49700;48.072;7.800;2023-01-25T00:54:20;101024.69;;;4.08;74.10
63556;BME280;49700;48.072;7.800;2023-01-25T00:56:46;101022.13;;;4.05;74.37
63556;BME280;49700;48.072;7.800;2023-01-25T00:59:14;101019.56;;;4.03;74.10
63556;BME280;49700;48.072;7.800;2023-01-25T01:01:40;101016.97;;;4.03;74.27
63556;BME280;49700;48.072;7.800;2023-01-25T01:04:06;101005.72;;;4.01;74.22
63556;BME280;49700;48.072;7.800;2023-01-25T01:06:38;101015.31;;;3.97;74.54
63556;BME280;49700;48.072;7.800;2023-01-25T01:09:05;101007.53;;;3.96;74.61
63556;BME280;49700;48.072;7.800;2023-01-25T01:11:32;101006.72;;;3.92;74.59
63556;BME280;49700;48.072;7.800;2023-01-25T01:17:02;101016.31;;;3.87;74.85
63556;BME280;49700;48.072;7.800;2023-01-25T01:19:36;101018.91;;;3.87;74.91
63556;BME280;49700;48.072;7.800;2023-01-25T01:22:01;101008.53;;;3.86;74.79
63556;BME280;49700;48.072;7.800;2023-01-25T01:24:27;101012.88;;;3.85;74.88
63556;BME280;49700;48.072;7.800;2023-01-25T01:26:53;101003.38;;;3.84;75.06
63556;BME280;49700;48.072;7.800;2023-01-25T01:29:18;101007.72;;;3.84;74.85
63556;BME280;49700;48.072;7.800;2023-01-25T01:31:44;101008.56;;;3.84;75.16
63556;BME280;49700;48.072;7.800;2023-01-25T01:34:18;101004.22;;;3.85;75.22
63556;BME280;49700;48.072;7.800;2023-01-25T01:36:44;101020.66;;;3.85;75.16
63556;BME280;49700;48.072;7.800;2023-01-25T01:39:09;101011.16;;;3.84;75.39
63556;BME280;49700;48.072;7.800;2023-01-25T01:41:36;101016.31;;;3.86;75.35
63556;BME280;49700;48.072;7.800;2023-01-25T01:44:02;101006.81;;;3.85;75.52
63556;BME280;49700;48.072;7.800;2023-01-25T01:46:37;101005.94;;;3.86;75.12
63556;BME280;49700;48.072;7.800;2023-01-25T01:49:16;101007.72;;;3.84;75.28
63556;BME280;49700;48.072;7.800;2023-01-25T01:51:48;101005.97;;;3.84;75.27
63556;BME280;49700;48.072;7.800;2023-01-25T01:54:33;101003.38;;;3.84;75.37
63556;BME280;49700;48.072;7.800;2023-01-25T01:57:14;100994.66;;;3.87;75.01
63556;BME280;49700;48.072;7.800;2023-01-25T01:59:47;100992.06;;;3.87;75.30
63556;BME280;49700;48.072;7.800;2023-01-25T02:02:15;100991.22;;;3.86;74.83
63556;BME280;49700;48.072;7.800;2023-01-25T02:04:45;100983.41;;;3.86;75.11
63556;BME280;49700;48.072;7.800;2023-01-25T02:07:30;100988.56;;;3.88;75.15
63556;BME280;49700;48.072;7.800;2023-01-25T02:09:57;100992.06;;;3.87;75.01
63556;BME280;49700;48.072;7.800;2023-01-25T02:12:23;100988.63;;;3.85;75.18
63556;BME280;49700;48.072;7.800;2023-01-25T02:14:51;100994.72;;;3.84;74.98
63556;BME280;49700;48.072;7.800;2023-01-25T02:17:27;100979.97;;;3.83;75.30
63556;BME280;49700;48.072;7.800;2023-01-25T02:20:08;100977.44;;;3.80;75.31
63556;BME280;49700;48.072;7.800;2023-01-25T02:23:20;100980.94;;;3.77;75.48
63556;BME280;49700;48.072;7.800;2023-01-25T02:25:48;100980.97;;;3.74;75.48
63556;BME280;49700;48.072;7.800;2023-01-25T02:30:49;100981.81;;;3.74;75.33
63556;BME280;49700;48.072;7.800;2023-01-25T02:33:15;100978.38;;;3.75;75.40
63556;BME280;49700;48.072;7.800;2023-01-25T02:35:45;100989.56;;;3.77;75.51
63556;BME280;49700;48.072;7.800;2023-01-25T02:38:13;100987.88;;;3.78;75.28
63556;BME280;49700;48.072;7.800;2023-01-25T02:40:47;100984.38;;;3.77;75.47
63556;BME280;49700;48.072;7.800;2023-01-25T02:43:14;100981.81;;;3.76;75.61
63556;BME280;49700;48.072;7.800;2023-01-25T02:45:43;100980.13;;;3.73;75.50
63556;BME280;49700;48.072;7.800;2023-01-25T02:48:10;100991.38;;;3.75;75.48
63556;BME280;49700;48.072;7.800;2023-01-25T02:50:36;100984.47;;;3.73;75.66
63556;BME280;49700;48.072;7.800;2023-01-25T02:53:01;100991.38;;;3.72;75.53
63556;BME280;49700;48.072;7.800;2023-01-25T02:55:26;100993.16;;;3.70;75.65
63556;BME280;49700;48.072;7.800;2023-01-25T02:57:52;100984.47;;;3.70;75.40
63556;BME280;49700;48.072;7.800;2023-01-25T03:00:18;100987.97;;;3.69;75.69
63556;BME280;49700;48.072;7.800;2023-01-25T03:02:44;100984.50;;;3.68;75.65
63556;BME280;49700;48.072;7.800;2023-01-25T03:05:10;100975.88;;;3.66;75.52
63556;BME280;49700;48.072;7.800;2023-01-25T03:07:36;100974.19;;;3.64;75.62
63556;BME280;49700;48.072;7.800;2023-01-25T03:10:02;100976.78;;;3.64;75.80
63556;BME280;49700;48.072;7.800;2023-01-25T03:12:29;100968.97;;;3.64;76.06
63556;BME280;49700;48.072;7.800;2023-01-25T03:14:54;100974.16;;;3.65;75.66
63556;BME280;49700;48.072;7.800;2023-01-25T03:17:20;100969.84;;;3.64;75.75
63556;BME280;49700;48.072;7.800;2023-01-25T03:19:46;100970.72;;;3.65;75.63
63556;BME280;49700;48.072;7.800;2023-01-25T03:22:12;100961.19;;;3.65;75.74
63556;BME280;49700;48.072;7.800;2023-01-25T03:24:37;100955.13;;;3.65;75.60
63556;BME280;49700;48.072;7.800;2023-01-25T03:27:05;100966.38;;;3.65;75.77
63556;BME280;49700;48.072;7.800;2023-01-25T03:29:51;100960.34;;;3.63;75.62
63556;BME280;49700;48.072;7.800;2023-01-25T03:32:26;100947.34;;;3.63;75.84
63556;BME280;49700;48.072;7.800;2023-01-25T03:34:52;100951.66;;;3.64;75.47
63556;BME280;49700;48.072;7.800;2023-01-25T03:37:18;100951.66;;;3.64;75.70
63556;BME280;49700;48.072;7.800;2023-01-25T03:39:44;100942.13;;;3.65;75.63
63556;BME280;49700;48.072;7.800;2023-01-25T03:42:10;100937.75;;;3.67;75.76
63556;BME280;49700;48.072;7.800;2023-01-25T03:44:36;100936.03;;;3.67;75.62
63556;BME280;49700;48.072;7.800;2023-01-25T03:47:02;100935.19;;;3.65;75.58
63556;BME280;49700;48.072;7.800;2023-01-25T03:49:28;100936.03;;;3.66;75.91
63556;BME280;49700;48.072;7.800;2023-01-25T03:51:54;100930.84;;;3.66;75.80
63556;BME280;49700;48.072;7.800;2023-01-25T03:54:26;100936.91;;;3.66;76.18
63556;BME280;49700;48.072;7.800;2023-01-25T03:56:52;100935.19;;;3.65;76.12
63556;BME280;49700;48.072;7.800;2023-01-25T03:59:23;100933.44;;;3.66;75.82
63556;BME280;49700;48.072;7.800;2023-01-25T04:01:49;100930.84;;;3.64;75.69
63556;BME280;49700;48.072;7.800;2023-01-25T04:04:15;100928.34;;;3.60;75.54
63556;BME280;49700;48.072;7.800;2023-01-25T04:06:43;100935.25;;;3.59;76.03
63556;BME280;49700;48.072;7.800;2023-01-25T04:09:08;100928.34;;;3.58;76.15
63556;BME280;49700;48.072;7.800;2023-01-25T04:11:39;100928.38;;;3.57;75.69
63556;BME280;49700;48.072;7.800;2023-01-25T04:14:04;100931.84;;;3.55;75.63
63556;BME280;49700;48.072;7.800;2023-01-25T04:16:40;100937.94;;;3.53;76.02
63556;BME280;49700;48.072;7.800;2023-01-25T04:19:25;100937.97;;;3.51;76.07
63556;BME280;49700;48.072;7.800;2023-01-25T04:21:57;100938.00;;;3.50;76.03
63556;BME280;49700;48.072;7.800;2023-01-25T04:24:27;100946.63;;;3.52;75.77
63556;BME280;49700;48.072;7.800;2023-01-25T04:26:53;100942.28;;;3.51;76.17
63556;BME280;49700;48.072;7.800;2023-01-25T04:29:18;100938.84;;;3.52;76.02
63556;BME280;49700;48.072;7.800;2023-01-25T04:31:44;100941.44;;;3.52;75.74
63556;BME280;49700;48.072;7.800;2023-01-25T04:34:10;100931.91;;;3.51;76.02
63556;BME280;49700;48.072;7.800;2023-01-25T04:36:36;100924.16;;;3.49;76.03
63556;BME280;49700;48.072;7.800;2023-01-25T04:39:01;100926.69;;;3.51;76.02
63556;BME280;49700;48.072;7.800;2023-01-25T04:41:27;100924.09;;;3.52;76.23
63556;BME280;49700;48.072;7.800;2023-01-25T04:43:54;100918.91;;;3.52;75.92
63556;BME280;49700;48.072;7.800;2023-01-25T04:46:19;100931.00;;;3.53;75.88
63556;BME280;49700;48.072;7.800;2023-01-25T04:48:45;100922.34;;;3.53;75.91
63556;BME280;49700;48.072;7.800;2023-01-25T04:51:10;100920.63;;;3.53;75.78
63556;BME280;49700;48.072;7.800;2023-01-25T04:53:36;100916.31;;;3.51;75.86
63556;BME280;49700;48.072;7.800;2023-01-25T04:56:04;100913.72;;;3.52;76.08
63556;BME280;49700;48.072;7.800;2023-01-25T04:58:34;100920.59;;;3.55;76.03
63556;BME280;49700;48.072;7.800;2023-01-25T05:01:01;100920.59;;;3.55;75.91
63556;BME280;49700;48.072;7.800;2023-01-25T05:03:27;100918.91;;;3.51;75.96
63556;BME280;49700;48.072;7.800;2023-01-25T05:05:52;100919.81;;;3.50;76.09
63556;BME280;49700;48.072;7.800;2023-01-25T05:08:21;100926.69;;;3.51;75.93
63556;BME280;49700;48.072;7.800;2023-01-25T05:10:47;100919.81;;;3.50;75.66
63556;BME280;49700;48.072;7.800;2023-01-25T05:13:29;100913.75;;;3.48;75.86
63556;BME280;49700;48.072;7.800;2023-01-25T05:16:13;100908.59;;;3.46;75.99
63556;BME280;49700;48.072;7.800;2023-01-25T05:18:38;100904.31;;;3.44;76.02
63556;BME280;49700;48.072;7.800;2023-01-25T05:21:04;100907.78;;;3.43;76.00
63556;BME280;49700;48.072;7.800;2023-01-25T05:23:30;100904.34;;;3.41;76.17
63556;BME280;49700;48.072;7.800;2023-01-25T05:25:56;100902.66;;;3.37;76.27
63556;BME280;49700;48.072;7.800;2023-01-25T05:28:40;100903.56;;;3.36;76.60
63556;BME280;49700;48.072;7.800;2023-01-25T05:31:23;100905.31;;;3.35;76.32
63556;BME280;49700;48.072;7.800;2023-01-25T05:33:48;100904.41;;;3.35;76.25
63556;BME280;49700;48.072;7.800;2023-01-25T05:36:15;100904.41;;;3.35;76.23
63556;BME280;49700;48.072;7.800;2023-01-25T05:38:41;100905.31;;;3.35;76.22
63556;BME280;49700;48.072;7.800;2023-01-25T05:41:08;100901.81;;;3.35;76.46
63556;BME280;49700;48.072;7.800;2023-01-25T05:43:34;100906.16;;;3.36;76.23
63556;BME280;49700;48.072;7.800;2023-01-25T05:46:02;100907.00;;;3.35;76.47
63556;BME280;49700;48.072;7.800;2023-01-25T05:48:29;100903.59;;;3.32;76.33
63556;BME280;49700;48.072;7.800;2023-01-25T05:50:57;100899.25;;;3.31;76.43
63556;BME280;49700;48.072;7.800;2023-01-25T05:53:26;100901.91;;;3.30;76.41
63556;BME280;49700;48.072;7.800;2023-01-25T05:55:52;100900.16;;;3.30;76.79
63556;BME280;49700;48.072;7.800;2023-01-25T05:58:18;100901.00;;;3.31;76.50
63556;BME280;49700;48.072;7.800;2023-01-25T06:00:44;100895.84;;;3.29;76.65
63556;BME280;49700;48.072;7.800;2023-01-25T06:03:16;100897.59;;;3.27;76.74
63556;BME280;49700;48.072;7.800;2023-01-25T06:05:42;100901.94;;;3.27;77.02
63556;BME280;49700;48.072;7.800;2023-01-25T06:08:07;100890.72;;;3.25;76.72
63556;BME280;49700;48.072;7.800;2023-01-25T06:10:45;100897.66;;;3.23;77.06
63556;BME280;49700;48.072;7.800;2023-01-25T06:13:11;100895.91;;;3.23;77.05
63556;BME280;49700;48.072;7.800;2023-01-25T06:15:37;100895.91;;;3.23;76.78
63556;BME280;49700;48.072;7.800;2023-01-25T06:18:23;100897.66;;;3.24;77.15
63556;BME280;49700;48.072;7.800;2023-01-25T06:21:10;100899.34;;;3.25;76.86
63556;BME280;49700;48.072;7.800;2023-01-25T06:23:36;100895.88;;;3.26;76.82
63556;BME280;49700;48.072;7.800;2023-01-25T06:26:04;100895.84;;;3.28;77.04
63556;BME280;49700;48.072;7.800;2023-01-25T06:28:35;100900.19;;;3.27;76.93
63556;BME280;49700;48.072;7.800;2023-01-25T06:31:05;100895.88;;;3.26;76.76
63556;BME280;49700;48.072;7.800;2023-01-25T06:33:31;100899.31;;;3.28;77.11
63556;BME280;49700;48.072;7.800;2023-01-25T06:36:05;100901.06;;;3.26;76.75
63556;BME280;49700;48.072;7.800;2023-01-25T06:38:32;100897.59;;;3.27;77.12
63556;BME280;49700;48.072;7.800;2023-01-25T06:40:59;100902.78;;;3.27;76.90
63556;BME280;49700;48.072;7.800;2023-01-25T06:43:24;100892.41;;;3.27;77.15
63556;BME280;49700;48.072;7.800;2023-01-25T06:45:50;100894.09;;;3.30;76.99
63556;BME280;49700;48.072;7.800;2023-01-25T06:48:15;100894.06;;;3.31;77.03
63556;BME280;49700;48.072;7.800;2023-01-25T06:50:41;100882.81;;;3.32;76.75
63556;BME280;49700;48.072;7.800;2023-01-25T06:53:06;100892.31;;;3.33;76.68
63556;BME280;49700;48.072;7.800;2023-01-25T06:55:32;100884.53;;;3.32;77.01
63556;BME280;49700;48.072;7.800;2023-01-25T06:57:59;100878.53;;;3.28;76.87
63556;BME280;49700;48.072;7.800;2023-01-25T07:00:25;100891.47;;;3.31;77.04
63556;BME280;49700;48.072;7.800;2023-01-25T07:02:50;100889.78;;;3.29;76.79
63556;BME280;49700;48.072;7.800;2023-01-25T07:05:15;100895.84;;;3.29;77.02
63556;BME280;49700;48.072;7.800;2023-01-25T07:07:44;100886.38;;;3.27;76.92
63556;BME280;49700;48.072;7.800;2023-01-25T07:10:10;100884.63;;;3.27;77.20
63556;BME280;49700;48.072;7.800;2023-01-25T07:12:36;100881.13;;;3.28;76.78
63556;BME280;49700;48.072;7.800;2023-01-25T07:15:01;100875.94;;;3.30;77.02
63556;BME280;49700;48.072;7.800;2023-01-25T07:17:27;100882.84;;;3.31;76.95
63556;BME280;49700;48.072;7.800;2023-01-25T07:19:52;100875.03;;;3.31;77.02
63556;BME280;49700;48.072;7.800;2023-01-25T07:22:17;100881.09;;;3.31;76.84
63556;BME280;49700;48.072;7.800;2023-01-25T07:24:43;100877.63;;;3.31;76.87
63556;BME280;49700;48.072;7.800;2023-01-25T07:27:15;100878.50;;;3.31;76.98
63556;BME280;49700;48.072;7.800;2023-01-25T07:29:40;100874.19;;;3.30;76.75
63556;BME280;49700;48.072;7.800;2023-01-25T07:32:06;100873.34;;;3.30;76.77
63556;BME280;49700;48.072;7.800;2023-01-25T07:34:31;100879.38;;;3.30;76.84
63556;BME280;49700;48.072;7.800;2023-01-25T07:36:57;100872.44;;;3.31;76.90
63556;BME280;49700;48.072;7.800;2023-01-25T07:39:22;100880.22;;;3.32;76.73
63556;BME280;49700;48.072;7.800;2023-01-25T07:41:48;100882.78;;;3.34;76.53
63556;BME280;49700;48.072;7.800;2023-01-25T07:44:16;100880.19;;;3.36;76.60
63556;BME280;49700;48.072;7.800;2023-01-25T07:46:48;100877.53;;;3.37;76.56
63556;BME280;49700;48.072;7.800;2023-01-25T07:49:14;100878.44;;;3.38;76.76
63556;BME280;49700;48.072;7.800;2023-01-25T07:51:39;100878.38;;;3.41;76.68
63556;BME280;49700;48.072;7.800;2023-01-25T07:54:04;100880.09;;;3.42;76.44
63556;BME280;49700;48.072;7.800;2023-01-25T07:56:34;100880.03;;;3.46;76.64
63556;BME280;49700;48.072;7.800;2023-01-25T07:59:02;100886.03;;;3.50;76.13
63556;BME280;49700;48.072;7.800;2023-01-25T08:01:28;100883.59;;;3.39;76.63
63556;BME280;49700;48.072;7.800;2023-01-25T08:03:55;100889.53;;;3.47;76.55
63556;BME280;49700;48.072;7.800;2023-01-25T08:06:23;100876.50;;;3.52;76.30
63556;BME280;49700;48.072;7.800;2023-01-25T08:08:52;100875.56;;;3.56;76.27
63556;BME280;49700;48.072;7.800;2023-01-25T08:11:19;100879.84;;;3.59;76.18
63556;BME280;49700;48.072;7.800;2023-01-25T08:13:45;100875.47;;;3.62;75.94
63556;BME280;49700;48.072;7.800;2023-01-25T08:16:12;100880.63;;;3.65;76.14
63556;BME280;49700;48.072;7.800;2023-01-25T08:18:38;100871.94;;;3.68;76.12
63556;BME280;49700;48.072;7.800;2023-01-25T08:21:04;100875.34;;;3.71;75.61
63556;BME280;49700;48.072;7.800;2023-01-25T08:23:29;100877.88;;;3.74;75.85
63556;BME280;49700;48.072;7.800;2023-01-25T08:25:55;100880.47;;;3.76;75.49
63556;BME280;49700;48.072;7.800;2023-01-25T08:28:21;100877.81;;;3.77;75.62
63556;BME280;49700;48.072;7.800;2023-01-25T08:30:47;100876.13;;;3.78;75.50
63556;BME280;49700;48.072;7.800;2023-01-25T08:33:12;100866.63;;;3.74;75.24
63556;BME280;49700;48.072;7.800;2023-01-25T08:35:38;100866.56;;;3.79;75.65
63556;BME280;49700;48.072;7.800;2023-01-25T08:38:03;100863.13;;;3.75;75.68
63556;BME280;49700;48.072;7.800;2023-01-25T08:40:29;100862.31;;;3.73;75.72
63556;BME280;49700;48.072;7.800;2023-01-25T08:42:54;100853.66;;;3.72;75.63
63556;BME280;49700;48.072;7.800;2023-01-25T08:45:20;100845.00;;;3.73;75.59
63556;BME280;49700;48.072;7.800;2023-01-25T08:47:45;100847.53;;;3.76;75.39
63556;BME280;49700;48.072;7.800;2023-01-25T08:50:11;100850.94;;;3.80;75.09
63556;BME280;49700;48.072;7.800;2023-01-25T08:52:36;100846.56;;;3.84;75.37
63556;BME280;49700;48.072;7.800;2023-01-25T08:55:02;100843.88;;;3.88;75.21
63556;BME280;49700;48.072;7.800;2023-01-25T08:57:27;100840.38;;;3.91;74.75
63556;BME280;49700;48.072;7.800;2023-01-25T08:59:53;100849.91;;;3.92;74.85
63556;BME280;49700;48.072;7.800;2023-01-25T09:02:18;100845.50;;;3.94;74.83
63556;BME280;49700;48.072;7.800;2023-01-25T09:04:46;100840.38;;;3.91;75.08
63556;BME280;49700;48.072;7.800;2023-01-25T09:07:11;100851.63;;;3.91;74.92
63556;BME280;49700;48.072;7.800;2023-01-25T09:09:36;100844.72;;;3.89;74.62
63556;BME280;49700;48.072;7.800;2023-01-25T09:12:02;100847.31;;;3.89;74.92
63556;BME280;49700;48.072;7.800;2023-01-25T09:14:27;100836.94;;;3.89;74.99
63556;BME280;49700;48.072;7.800;2023-01-25T09:16:53;100833.41;;;3.91;75.05
63556;BME280;49700;48.072;7.800;2023-01-25T09:19:18;100832.50;;;3.95;74.79
63556;BME280;49700;48.072;7.800;2023-01-25T09:21:44;100835.94;;;3.96;74.71
63556;BME280;49700;48.072;7.800;2023-01-25T09:24:09;100838.53;;;3.97;74.78
63556;BME280;49700;48.072;7.800;2023-01-25T09:26:37;100838.44;;;4.02;74.80
63556;BME280;49700;48.072;7.800;2023-01-25T09:29:04;100843.56;;;4.07;74.64
63556;BME280;49700;48.072;7.800;2023-01-25T09:31:32;100845.28;;;4.08;74.57
63556;BME280;49700;48.072;7.800;2023-01-25T09:34:00;100844.38;;;4.10;74.69
63556;BME280;49700;48.072;7.800;2023-01-25T09:36:26;100838.25;;;4.13;74.48
63556;BME280;49700;48.072;7.800;2023-01-25T09:38:51;100840.84;;;4.14;74.42
63556;BME280;49700;48.072;7.800;2023-01-25T09:46:58;100840.78;;;4.17;74.52
63556;BME280;49700;48.072;7.800;2023-01-25T09:54:45;100845.84;;;4.25;74.02
63556;BME280;49700;48.072;7.800;2023-01-25T09:57:18;100843.13;;;4.31;74.03
63556;BME280;49700;48.072;7.800;2023-01-25T09:59:46;100836.16;;;4.35;74.03
63556;BME280;49700;48.072;7.800;2023-01-25T10:04:56;100836.91;;;4.40;73.70
63556;BME280;49700;48.072;7.800;2023-01-25T10:07:27;100827.38;;;4.40;74.03
63556;BME280;49700;48.072;7.800;2023-01-25T10:10:13;100830.78;;;4.42;73.77
63556;BME280;49700;48.072;7.800;2023-01-25T10:12:41;100823.88;;;4.41;73.50
63556;BME280;49700;48.072;7.800;2023-01-25T10:15:20;100825.56;;;4.46;73.57
63556;BME280;49700;48.072;7.800;2023-01-25T10:17:51;100828.94;;;4.49;73.36
63556;BME280;49700;48.072;7.800;2023-01-25T10:20:30;100822.88;;;4.49;73.32
63556;BME280;49700;48.072;7.800;2023-01-25T10:26:24;100816.00;;;4.46;73.14
63556;BME280;49700;48.072;7.800;2023-01-25T10:29:10;100826.41;;;4.46;73.31
63556;BME280;49700;48.072;7.800;2023-01-25T10:31:49;100819.41;;;4.48;73.28
63556;BME280;49700;48.072;7.800;2023-01-25T10:34:20;100817.63;;;4.50;73.33
63556;BME280;49700;48.072;7.800;2023-01-25T10:37:17;100812.38;;;4.53;73.06
63556;BME280;49700;48.072;7.800;2023-01-25T10:39:57;100818.41;;;4.55;73.16
63556;BME280;49700;48.072;7.800;2023-01-25T10:42:26;100809.66;;;4.59;73.21
63556;BME280;49700;48.072;7.800;2023-01-25T10:44:53;100808.72;;;4.63;72.96
63556;BME280;49700;48.072;7.800;2023-01-25T10:47:28;100797.38;;;4.66;73.15
63556;BME280;49700;48.072;7.800;2023-01-25T10:49:56;100797.25;;;4.72;72.94
63556;BME280;49700;48.072;7.800;2023-01-25T10:52:27;100789.28;;;4.80;72.63
63556;BME280;49700;48.072;7.800;2023-01-25T10:55:13;100789.22;;;4.83;72.46
63556;BME280;49700;48.072;7.800;2023-01-25T10:57:42;100790.88;;;4.87;72.33
63556;BME280;49700;48.072;7.800;2023-01-25T11:00:30;100787.31;;;4.91;72.45
63556;BME280;49700;48.072;7.800;2023-01-25T11:02:59;100779.50;;;4.91;72.32
63556;BME280;49700;48.072;7.800;2023-01-25T11:05:27;100775.19;;;4.90;72.39
63556;BME280;49700;48.072;7.800;2023-01-25T11:07:53;100783.94;;;4.86;71.83
63556;BME280;49700;48.072;7.800;2023-01-25T11:10:34;100770.13;;;4.84;72.33
63556;BME280;49700;48.072;7.800;2023-01-25T11:15:38;100770.91;;;4.86;72.11
63556;BME280;49700;48.072;7.800;2023-01-25T11:18:21;100761.31;;;4.90;72.53
63556;BME280;49700;48.072;7.800;2023-01-25T11:21:02;100761.19;;;4.96;71.77
63556;BME280;49700;48.072;7.800;2023-01-25T11:23:28;100755.88;;;5.00;71.85
63556;BME280;49700;48.072;7.800;2023-01-25T11:26:11;100750.63;;;5.02;71.28
63556;BME280;49700;48.072;7.800;2023-01-25T11:28:37;100746.31;;;5.01;71.33
63556;BME280;49700;48.072;7.800;2023-01-25T11:31:08;100738.47;;;5.02;71.06
63556;BME280;49700;48.072;7.800;2023-01-25T11:33:35;100738.41;;;5.05;71.17
63556;BME280;49700;48.072;7.800;2023-01-25T11:36:31;100740.97;;;5.07;71.16
63556;BME280;49700;48.072;7.800;2023-01-25T11:42:32;100732.13;;;5.14;70.97
63556;BME280;49700;48.072;7.800;2023-01-25T11:47:53;100718.94;;;5.22;70.61
63556;BME280;49700;48.072;7.800;2023-01-25T11:50:29;100720.59;;;5.24;70.30
63556;BME280;49700;48.072;7.800;2023-01-25T11:55:53;100721.63;;;5.17;70.38
63556;BME280;49700;48.072;7.800;2023-01-25T11:58:45;100710.50;;;5.10;70.47
63556;BME280;49700;48.072;7.800;2023-01-25T12:01:27;100702.69;;;5.10;70.36
63556;BME280;49700;48.072;7.800;2023-01-25T12:04:10;100697.50;;;5.09;70.48
63556;BME280;49700;48.072;7.800;2023-01-25T12:07:01;100687.06;;;5.10;70.76
63556;BME280;49700;48.072;7.800;2023-01-25T12:12:15;100680.06;;;5.13;70.60
63556;BME280;49700;48.072;7.800;2023-01-25T12:20:29;100667.09;;;5.11;70.88
63556;BME280;49700;48.072;7.800;2023-01-25T12:23:28;100657.50;;;5.13;70.80
63556;BME280;49700;48.072;7.800;2023-01-25T12:26:15;100640.06;;;5.15;70.52
63556;BME280;49700;48.072;7.800;2023-01-25T12:28:52;100636.59;;;5.16;70.52
63556;BME280;49700;48.072;7.800;2023-01-25T12:34:18;100629.50;;;5.21;70.50
63556;BME280;49700;48.072;7.800;2023-01-25T12:36:47;100625.09;;;5.23;70.50
63556;BME280;49700;48.072;7.800;2023-01-25T12:39:21;100615.56;;;5.24;70.48
63556;BME280;49700;48.072;7.800;2023-01-25T12:42:03;100615.50;;;5.25;70.62
63556;BME280;49700;48.072;7.800;2023-01-25T12:44:42;100607.69;;;5.25;70.76
63556;BME280;49700;48.072;7.800;2023-01-25T12:47:23;100599.97;;;5.21;70.16
63556;BME280;49700;48.072;7.800;2023-01-25T12:50:03;100603.53;;;5.18;70.32
63556;BME280;49700;48.072;7.800;2023-01-25T12:52:41;100599.31;;;5.13;70.32
63556;BME280;49700;48.072;7.800;2023-01-25T12:55:14;100601.16;;;5.09;70.59
63556;BME280;49700;48.072;7.800;2023-01-25T12:57:57;100595.97;;;5.07;70.44
63556;BME280;49700;48.072;7.800;2023-01-25T13:00:30;100601.16;;;5.09;70.51
63556;BME280;49700;48.072;7.800;2023-01-25T13:03:20;100590.72;;;5.10;70.20
63556;BME280;49700;48.072;7.800;2023-01-25T13:11:15;100588.78;;;5.19;70.32
63556;BME280;49700;48.072;7.800;2023-01-25T13:13:43;100581.72;;;5.22;70.01
63556;BME280;49700;48.072;7.800;2023-01-25T13:16:36;100580.03;;;5.21;69.84
63556;BME280;49700;48.072;7.800;2023-01-25T13:19:17;100576.50;;;5.24;69.71
63556;BME280;49700;48.072;7.800;2023-01-25T13:21:44;100566.88;;;5.26;69.32
63556;BME280;49700;48.072;7.800;2023-01-25T13:24:13;100569.53;;;5.24;69.50
63556;BME280;49700;48.072;7.800;2023-01-25T13:26:47;100567.78;;;5.23;69.72
63556;BME280;49700;48.072;7.800;2023-01-25T13:34:59;100553.06;;;5.22;69.80
63556;BME280;49700;48.072;7.800;2023-01-25T13:37:28;100551.38;;;5.21;69.25
63556;BME280;49700;48.072;7.800;2023-01-25T13:42:57;100557.47;;;5.20;69.42
63556;BME280;49700;48.072;7.800;2023-01-25T13:45:23;100552.22;;;5.22;69.34
63556;BME280;49700;48.072;7.800;2023-01-25T13:50:34;100552.31;;;5.19;69.24
63556;BME280;49700;48.072;7.800;2023-01-25T13:53:18;100547.03;;;5.20;69.31
63556;BME280;49700;48.072;7.800;2023-01-25T13:55:46;100548.81;;;5.20;69.35
63556;BME280;49700;48.072;7.800;2023-01-25T14:00:52;100543.59;;;5.20;69.04
63556;BME280;49700;48.072;7.800;2023-01-25T14:03:24;100538.34;;;5.21;69.32
63556;BME280;49700;48.072;7.800;2023-01-25T14:05:53;100546.16;;;5.21;69.26
63556;BME280;49700;48.072;7.800;2023-01-25T14:08:19;100537.53;;;5.19;69.35
63556;BME280;49700;48.072;7.800;2023-01-25T14:10:46;100532.25;;;5.21;69.20
63556;BME280;49700;48.072;7.800;2023-01-25T14:13:14;100522.59;;;5.26;69.19
63556;BME280;49700;48.072;7.800;2023-01-25T14:15:39;100528.53;;;5.31;68.98
63556;BME280;49700;48.072;7.800;2023-01-25T14:20:49;100526.66;;;5.36;68.99
63556;BME280;49700;48.072;7.800;2023-01-25T14:23:23;100516.06;;;5.42;69.06
63556;BME280;49700;48.072;7.800;2023-01-25T14:25:50;100521.16;;;5.45;68.67
63556;BME280;49700;48.072;7.800;2023-01-25T14:28:16;100523.72;;;5.48;68.81